Time,TemperatureF,DewpointF,PressureIn,WindDirection,WindDirectionDegrees,WindSpeedMPH,WindSpeedGustMPH,Humidity,HourlyPrecipIn,Conditions,Clouds,dailyrainin,SoftwareType,DateUTC
2013-12-21 00:30:00,37.0,29.0,-100.00,NE,56,1.0,2.0,73,-99.99,,,-99.99,,2013-12-21 08:30:00,
2013-12-21 00:52:00,37.0,28.0,-100.00,SSW,212,2.0,5.0,69,-99.99,,,-99.99,,2013-12-21 08:52:00,
2013-12-21 01:11:00,37.0,29.0,-100.00,NE,56,1.0,2.0,73,-99.99,,,-99.99,,2013-12-21 09:11:00,
2013-12-21 01:21:00,37.0,29.0,-100.00,North,-999,0.0,1.0,74,-99.99,,,-99.99,,2013-12-21 09:21:00,
2013-12-21 01:22:00,37.0,29.0,-100.00,NE,56,1.0,2.0,73,-99.99,,,-99.99,,2013-12-21 09:22:00,
2013-12-21 01:54:00,37.0,29.0,-100.00,North,-999,0.0,1.0,74,-99.99,,,-99.99,,2013-12-21 09:54:00,
2013-12-21 02:03:00,37.0,29.0,-100.00,North,-999,0.0,1.0,74,-99.99,,,-99.99,,2013-12-21 10:03:00,
2013-12-21 02:12:00,37.0,29.0,-100.00,North,-999,0.0,1.0,74,-99.99,,,-99.99,,2013-12-21 10:12:00,
2013-12-21 02:53:00,42.0,31.0,-100.00,West,260,7.0,10.0,64,-99.99,,,-99.99,,2013-12-21 10:53:00,
2013-12-21 03:23:00,42.0,31.0,-100.00,WSW,243,5.0,11.0,64,-99.99,,,-99.99,,2013-12-21 11:23:00,
2013-12-21 03:33:00,42.0,31.0,-100.00,WSW,243,5.0,11.0,64,-99.99,,,-99.99,,2013-12-21 11:33:00,
2013-12-21 04:12:00,42.0,30.0,-100.00,West,263,7.0,10.0,61,-99.99,,,-99.99,,2013-12-21 12:12:00,
2013-12-21 04:21:00,42.0,30.0,-100.00,West,263,7.0,10.0,61,-99.99,,,-99.99,,2013-12-21 12:21:00,
2013-12-21 04:52:00,39.0,28.0,-100.00,ENE,73,1.0,3.0,65,-99.99,,,-99.99,,2013-12-21 12:52:00,
2013-12-21 05:11:00,37.0,28.0,-100.00,NE,40,1.0,2.0,70,-99.99,,,-99.99,,2013-12-21 13:11:00,
2013-12-21 05:21:00,36.0,28.0,-100.00,North,-999,0.0,2.0,72,-99.99,,,-99.99,,2013-12-21 13:21:00,
2013-12-21 05:32:00,36.0,28.0,-100.00,North,-999,0.0,2.0,72,-99.99,,,-99.99,,2013-12-21 13:32:00,
2013-12-21 05:42:00,36.0,28.0,-100.00,North,-999,0.0,2.0,72,-99.99,,,-99.99,,2013-12-21 13:42:00,
2013-12-21 05:52:00,38.0,28.0,-100.00,NW,304,3.0,4.0,68,-99.99,,,-99.99,,2013-12-21 13:52:00,
2013-12-21 06:12:00,37.0,28.0,-100.00,North,353,1.0,3.0,69,-99.99,,,-99.99,,2013-12-21 14:12:00,
2013-12-21 06:22:00,37.0,28.0,-100.00,North,353,1.0,3.0,69,-99.99,,,-99.99,,2013-12-21 14:22:00,
2013-12-21 06:42:00,37.0,28.0,-100.00,West,268,2.0,3.0,69,-99.99,,,-99.99,,2013-12-21 14:42:00,
2013-12-21 06:53:00,37.0,28.0,-100.00,West,268,2.0,3.0,69,-99.99,,,-99.99,,2013-12-21 14:53:00,
2013-12-21 07:12:00,36.0,27.0,-100.00,North,-999,0.0,3.0,70,-99.99,,,-99.99,,2013-12-21 15:12:00,
2013-12-21 07:21:00,36.0,27.0,-100.00,North,-999,0.0,2.0,70,-99.99,,,-99.99,,2013-12-21 15:21:00,
2013-12-21 07:33:00,36.0,27.0,-100.00,North,-999,0.0,2.0,70,-99.99,,,-99.99,,2013-12-21 15:33:00,
2013-12-21 07:43:00,36.0,27.0,-100.00,North,-999,0.0,2.0,70,-99.99,,,-99.99,,2013-12-21 15:43:00,
2013-12-21 07:53:00,37.0,28.0,-100.00,WNW,288,3.0,4.0,70,-99.99,,,-99.99,,2013-12-21 15:53:00,
2013-12-21 08:13:00,37.0,28.0,-100.00,SW,234,2.0,3.0,69,-99.99,,,-99.99,,2013-12-21 16:13:00,
2013-12-21 08:22:00,37.0,28.0,-100.00,SW,234,2.0,3.0,69,-99.99,,,-99.99,,2013-12-21 16:22:00,
2013-12-21 09:12:00,40.0,28.0,-100.00,SW,233,2.0,3.0,61,-99.99,,,-99.99,,2013-12-21 17:12:00,
2013-12-21 10:22:00,42.0,28.0,-100.00,ESE,102,2.0,4.0,57,-99.99,,,-99.99,,2013-12-21 18:22:00,
2013-12-21 10:32:00,44.0,28.0,-100.00,ESE,107,2.0,3.0,52,-99.99,,,-99.99,,2013-12-21 18:32:00,
2013-12-21 11:11:00,44.0,28.0,-100.00,ESE,107,2.0,3.0,52,-99.99,,,-99.99,,2013-12-21 19:11:00,
2013-12-21 11:21:00,44.0,28.0,-100.00,ESE,107,2.0,3.0,52,-99.99,,,-99.99,,2013-12-21 19:21:00,
2013-12-21 12:23:00,43.0,29.0,-100.00,NE,40,7.0,9.0,58,-99.99,,,-99.99,,2013-12-21 20:23:00,
2013-12-21 12:42:00,42.0,28.0,-100.00,NNE,20,7.0,9.0,58,-99.99,,,-99.99,,2013-12-21 20:42:00,
2013-12-21 13:11:00,43.0,29.0,-100.00,ENE,61,5.0,7.0,58,-99.99,,,-99.99,,2013-12-21 21:11:00,
2013-12-21 13:22:00,45.0,30.0,-100.00,SSW,193,1.0,3.0,56,-99.99,,,-99.99,,2013-12-21 21:22:00,
2013-12-21 13:43:00,44.0,29.0,-100.00,SE,131,3.0,5.0,55,-99.99,,,-99.99,,2013-12-21 21:43:00,
2013-12-21 14:42:00,45.0,29.0,-100.00,ENE,62,3.0,7.0,54,-99.99,,,-99.99,,2013-12-21 22:42:00,
2013-12-21 14:53:00,44.0,27.0,-100.00,ENE,59,8.0,11.0,50,-99.99,,,-99.99,,2013-12-21 22:53:00,
2013-12-21 15:02:00,44.0,27.0,-100.00,ENE,59,8.0,11.0,50,-99.99,,,-99.99,,2013-12-21 23:02:00,
2013-12-21 15:22:00,44.0,28.0,-100.00,NNE,30,1.0,3.0,54,-99.99,,,-99.99,,2013-12-21 23:22:00,
2013-12-21 15:43:00,44.0,30.0,-100.00,SSE,167,2.0,4.0,57,-99.99,,,-99.99,,2013-12-21 23:43:00,
2013-12-21 16:11:00,43.0,28.0,-100.00,South,191,1.0,3.0,56,-99.99,,,-99.99,,2013-12-22 00:11:00,
2013-12-21 16:42:00,40.0,28.0,-100.00,North,-999,0.0,1.0,62,-99.99,,,-99.99,,2013-12-22 00:42:00,
2013-12-21 16:52:00,39.0,27.0,-100.00,North,349,2.0,3.0,63,-99.99,,,-99.99,,2013-12-22 00:52:00,
2013-12-21 17:02:00,39.0,27.0,-100.00,North,349,2.0,3.0,63,-99.99,,,-99.99,,2013-12-22 01:02:00,
2013-12-21 17:22:00,39.0,27.0,-100.00,North,354,3.0,3.0,63,-99.99,,,-99.99,,2013-12-22 01:22:00,
2013-12-21 17:42:00,39.0,27.0,-100.00,NNW,342,6.0,7.0,61,-99.99,,,-99.99,,2013-12-22 01:42:00,
2013-12-21 18:11:00,39.0,26.0,-100.00,NW,320,5.0,7.0,59,-99.99,,,-99.99,,2013-12-22 02:11:00,
2013-12-21 18:22:00,37.0,27.0,-100.00,North,349,5.0,6.0,66,-99.99,,,-99.99,,2013-12-22 02:22:00,
2013-12-21 18:42:00,37.0,27.0,-100.00,SSW,206,1.0,2.0,66,-99.99,,,-99.99,,2013-12-22 02:42:00,
2013-12-21 18:52:00,37.0,27.0,-100.00,North,8,1.0,3.0,67,-99.99,,,-99.99,,2013-12-22 02:52:00,
2013-12-21 19:02:00,37.0,27.0,-100.00,North,8,1.0,3.0,67,-99.99,,,-99.99,,2013-12-22 03:02:00,
2013-12-21 19:43:00,36.0,26.0,-100.00,North,-999,0.0,1.0,66,-99.99,,,-99.99,,2013-12-22 03:43:00,
2013-12-21 19:54:00,36.0,26.0,-100.00,North,-999,0.0,1.0,66,-99.99,,,-99.99,,2013-12-22 03:54:00,
2013-12-21 20:23:00,36.0,26.0,-100.00,WNW,288,3.0,4.0,68,-99.99,,,-99.99,,2013-12-22 04:23:00,
2013-12-21 20:33:00,36.0,26.0,-100.00,WNW,288,3.0,4.0,68,-99.99,,,-99.99,,2013-12-22 04:33:00,
2013-12-21 20:43:00,36.0,26.0,-100.00,WNW,288,3.0,4.0,68,-99.99,,,-99.99,,2013-12-22 04:43:00,
2013-12-21 20:53:00,36.0,26.0,-100.00,WNW,299,1.0,3.0,68,-99.99,,,-99.99,,2013-12-22 04:53:00,
2013-12-21 21:03:00,36.0,26.0,-100.00,WNW,299,1.0,3.0,68,-99.99,,,-99.99,,2013-12-22 05:03:00,
2013-12-21 21:43:00,35.0,27.0,-100.00,NNE,28,1.0,2.0,71,-99.99,,,-99.99,,2013-12-22 05:43:00,
2013-12-21 22:12:00,35.0,27.0,-100.00,North,353,3.0,4.0,72,-99.99,,,-99.99,,2013-12-22 06:12:00,
2013-12-21 22:22:00,35.0,27.0,-100.00,NNW,328,2.0,3.0,73,-99.99,,,-99.99,,2013-12-22 06:22:00,
2013-12-21 22:42:00,35.0,27.0,-100.00,North,4,2.0,3.0,73,-99.99,,,-99.99,,2013-12-22 06:42:00,
2013-12-21 22:52:00,35.0,27.0,-100.00,North,-999,0.0,2.0,73,-99.99,,,-99.99,,2013-12-22 06:52:00,
2013-12-21 23:02:00,35.0,27.0,-100.00,North,-999,0.0,2.0,73,-99.99,,,-99.99,,2013-12-22 07:02:00,
2013-12-21 23:42:00,34.0,27.0,-100.00,North,-999,0.0,1.0,75,-99.99,,,-99.99,,2013-12-22 07:42:00,